Terminal Aerodrome Forecast
Issued by NWS

Home | Current Version | Previous Version | Text Only | Print | Product List | Glossary On
Versions: 1 2 3 4 5 6 7 8 9 10 11 12 13 14 15 16 17 18 19 20 21 22
000
FTUS43 KIND 171700
TAFBMG
TAF
KBMG 171720Z 1718/1818 VRB05KT P6SM BKN035
     FM172200 VRB03KT P6SM SCT040 BKN100
     FM180300 00000KT 6SM BR SCT030
     FM180600 00000KT 2SM BR FEW003 SCT250
     FM181400 09006KT P6SM SCT030=

USA.gov is the U.S. government's official web portal to all federal, state and local government web resources and services.